Time;durP1;ratioP1;P1;durP2;ratioP2;P2;SDS_P1;SDS_P2;PMS_P1;PMS_P2;Temp;Humidity;BMP_temperature;BMP_pressure;BME280_temperature;BME280_humidity;BME280_pressure;Samples;Min_cycle;Max_cycle;Signal;HPM_P1;HPM_P2
2024/01/04 00:00:06;;;;;;;7.57;3.28;;;7.80;99.90;;;;;;4975032;28;20042;-77
2024/01/04 00:02:31;;;;;;;8.25;3.08;;;7.80;99.90;;;;;;4959126;28;20045;-78
2024/01/04 00:04:57;;;;;;;5.30;2.40;;;7.80;99.90;;;;;;4991584;28;20435;-77
2024/01/04 00:07:23;;;;;;;7.20;3.03;;;8.00;99.90;;;;;;4974669;28;20137;-77
2024/01/04 00:09:51;;;;;;;7.80;2.47;;;7.80;99.90;;;;;;4991382;28;20121;-77
2024/01/04 00:12:17;;;;;;;6.15;2.55;;;7.70;99.90;;;;;;4974903;28;20042;-77
2024/01/04 00:14:44;;;;;;;7.88;2.53;;;7.70;99.90;;;;;;4977550;28;20479;-77
2024/01/04 00:17:09;;;;;;;7.95;2.25;;;7.70;99.90;;;;;;4994065;28;20531;-77
2024/01/04 00:19:38;;;;;;;5.40;2.35;;;7.70;99.90;;;;;;4991229;28;20121;-77
2024/01/04 00:22:03;;;;;;;10.00;2.60;;;7.70;99.90;;;;;;4975255;28;20125;-77
2024/01/04 00:24:29;;;;;;;10.82;2.75;;;7.70;99.90;;;;;;4992395;28;20592;-81
2024/01/04 00:26:55;;;;;;;6.20;2.25;;;7.60;99.90;;;;;;4990794;28;20045;-78
2024/01/04 00:29:20;;;;;;;7.57;2.15;;;7.60;99.90;;;;;;4974069;28;20038;-77
2024/01/04 00:31:47;;;;;;;5.35;2.30;;;7.60;99.90;;;;;;4990664;28;20073;-76
2024/01/04 00:34:13;;;;;;;6.53;2.20;;;7.60;99.90;;;;;;4974084;28;20456;-78
2024/01/04 00:36:38;;;;;;;6.43;2.30;;;7.60;99.90;;;;;;4976462;28;20077;-77
2024/01/04 00:39:04;;;;;;;5.65;2.10;;;7.60;99.90;;;;;;4978060;28;20037;-77
2024/01/04 00:41:30;;;;;;;5.78;2.13;;;7.50;99.90;;;;;;4973882;28;20098;-77
2024/01/04 00:43:55;;;;;;;9.68;2.25;;;7.50;99.90;;;;;;4991313;28;20046;-77
2024/01/04 00:46:21;;;;;;;7.88;1.80;;;7.50;99.90;;;;;;4989865;28;20129;-77
2024/01/04 00:48:47;;;;;;;3.25;1.42;;;7.50;99.90;;;;;;4990839;28;20054;-77
2024/01/04 00:51:13;;;;;;;4.30;1.60;;;7.50;99.90;;;;;;4974496;28;20107;-77
2024/01/04 00:53:39;;;;;;;5.05;1.58;;;7.50;99.90;;;;;;4990636;28;20196;-77
2024/01/04 00:56:05;;;;;;;5.65;1.52;;;7.50;99.90;;;;;;5006975;28;20586;-76
2024/01/04 00:58:31;;;;;;;4.25;1.60;;;7.50;99.90;;;;;;4992396;28;20034;-77
2024/01/04 01:00:57;;;;;;;4.13;1.42;;;7.40;99.90;;;;;;4994690;28;20517;-77
2024/01/04 01:03:23;;;;;;;6.93;1.67;;;7.40;99.90;;;;;;4977404;28;20039;-76
2024/01/04 01:05:49;;;;;;;4.05;1.40;;;7.40;99.90;;;;;;4977532;28;20048;-77
2024/01/04 01:08:16;;;;;;;6.10;1.50;;;7.40;99.90;;;;;;4978272;28;20061;-77
2024/01/04 01:10:42;;;;;;;4.25;1.40;;;7.40;99.90;;;;;;4978049;28;20053;-76
2024/01/04 01:13:08;;;;;;;3.08;1.40;;;7.40;99.90;;;;;;5014060;28;20046;-77
2024/01/04 01:15:34;;;;;;;4.60;1.30;;;7.40;99.90;;;;;;4978239;28;20077;-77
2024/01/04 01:18:00;;;;;;;7.97;1.70;;;7.40;99.90;;;;;;4994853;28;20481;-77
2024/01/04 01:20:26;;;;;;;2.17;1.23;;;7.30;99.90;;;;;;4994674;28;20035;-78
2024/01/04 01:22:51;;;;;;;3.70;1.58;;;7.30;99.90;;;;;;4994461;28;20045;-77
2024/01/04 01:25:17;;;;;;;3.90;1.50;;;7.30;99.90;;;;;;4994033;28;20042;-77
2024/01/04 01:27:42;;;;;;;7.88;1.80;;;7.30;99.90;;;;;;4994597;28;20408;-77
2024/01/04 01:30:09;;;;;;;7.65;1.70;;;7.20;99.90;;;;;;4994527;28;20053;-78
2024/01/04 01:32:34;;;;;;;3.25;1.50;;;7.20;99.90;;;;;;4996013;28;20034;-77
2024/01/04 01:35:00;;;;;;;6.97;1.98;;;7.20;99.90;;;;;;4994071;28;20125;-77
2024/01/04 01:37:25;;;;;;;5.95;1.45;;;7.20;99.90;;;;;;4995718;28;20055;-78
2024/01/04 01:39:51;;;;;;;5.38;1.52;;;7.20;99.90;;;;;;4993700;28;20046;-77
2024/01/04 01:42:20;;;;;;;3.60;1.40;;;7.20;99.90;;;;;;4994461;28;20050;-78
2024/01/04 01:44:46;;;;;;;3.40;1.38;;;7.10;99.90;;;;;;4994741;28;20396;-77
2024/01/04 01:47:12;;;;;;;7.40;1.80;;;7.10;99.90;;;;;;4993394;28;20500;-76
2024/01/04 01:49:37;;;;;;;7.95;1.50;;;7.10;99.90;;;;;;4993641;28;20128;-77
2024/01/04 01:52:03;;;;;;;5.03;1.38;;;7.10;99.90;;;;;;4994102;28;20049;-77
2024/01/04 01:54:29;;;;;;;6.10;1.52;;;7.10;99.90;;;;;;4991717;28;20477;-80
2024/01/04 01:56:55;;;;;;;8.27;1.20;;;7.10;99.90;;;;;;4993861;28;20034;-78
2024/01/04 01:59:21;;;;;;;7.85;1.50;;;7.00;99.90;;;;;;4994088;28;20563;-79
2024/01/04 02:01:47;;;;;;;8.60;1.85;;;7.10;99.90;;;;;;4993788;28;20046;-77
2024/01/04 02:04:12;;;;;;;6.55;1.60;;;7.10;99.90;;;;;;4977470;28;20548;-77
2024/01/04 02:06:38;;;;;;;7.60;1.52;;;7.10;99.90;;;;;;4993187;28;20042;-77
2024/01/04 02:09:04;;;;;;;5.85;1.63;;;7.00;99.90;;;;;;4994865;28;20489;-77
2024/01/04 02:11:29;;;;;;;5.35;1.38;;;7.00;99.90;;;;;;4992994;28;20074;-77
2024/01/04 02:13:55;;;;;;;6.38;2.13;;;7.00;99.90;;;;;;4994028;28;20050;-77
2024/01/04 02:16:21;;;;;;;5.03;1.40;;;7.00;99.90;;;;;;4994796;28;20125;-77
2024/01/04 02:18:46;;;;;;;5.47;1.20;;;7.00;99.90;;;;;;4994646;28;20417;-77
2024/01/04 02:21:12;;;;;;;6.03;1.67;;;7.00;99.90;;;;;;4993862;28;20038;-78
2024/01/04 02:23:37;;;;;;;5.63;1.42;;;7.00;99.90;;;;;;4993201;28;20046;-79
2024/01/04 02:26:03;;;;;;;5.45;1.23;;;7.00;99.90;;;;;;4992986;28;20031;-77
2024/01/04 02:28:29;;;;;;;5.18;1.48;;;6.90;99.90;;;;;;4975820;28;20165;-77
2024/01/04 02:30:54;;;;;;;4.32;1.15;;;6.90;99.90;;;;;;4992600;28;20412;-77
2024/01/04 02:33:20;;;;;;;4.90;1.00;;;6.90;99.90;;;;;;4993906;28;20038;-77
2024/01/04 02:35:45;;;;;;;4.97;0.98;;;6.90;99.90;;;;;;4993619;28;20041;-77
2024/01/04 02:38:11;;;;;;;2.60;0.80;;;6.90;99.90;;;;;;4995314;28;20039;-77
2024/01/04 02:40:38;;;;;;;4.43;0.98;;;6.90;99.90;;;;;;4995134;28;20042;-77
2024/01/04 02:43:09;;;;;;;6.07;1.02;;;6.90;99.90;;;;;;4995156;28;20041;-77
2024/01/04 02:45:35;;;;;;;2.33;0.80;;;6.80;99.90;;;;;;4993440;28;20042;-78
2024/01/04 02:48:00;;;;;;;3.55;1.20;;;6.80;99.90;;;;;;4993815;28;20039;-78
2024/01/04 02:50:26;;;;;;;5.03;1.15;;;6.80;99.90;;;;;;4994447;28;20097;-77
2024/01/04 02:52:51;;;;;;;10.50;1.60;;;6.80;99.90;;;;;;4993726;28;20105;-78
2024/01/04 02:55:17;;;;;;;5.80;0.90;;;6.80;99.90;;;;;;4993712;28;20048;-77
2024/01/04 02:57:42;;;;;;;5.68;1.17;;;6.80;99.90;;;;;;4994039;28;20077;-79
2024/01/04 03:00:08;;;;;;;4.55;1.13;;;6.80;99.90;;;;;;4993868;28;20035;-78
2024/01/04 03:02:34;;;;;;;7.38;1.60;;;6.80;99.90;;;;;;4993900;28;20053;-77
2024/01/04 03:04:59;;;;;;;12.02;1.27;;;6.80;99.90;;;;;;4993693;28;20046;-77
2024/01/04 03:07:25;;;;;;;6.03;1.13;;;6.80;99.90;;;;;;4977908;28;20046;-78
2024/01/04 03:09:51;;;;;;;5.40;1.10;;;6.80;99.90;;;;;;4978192;28;20122;-78
2024/01/04 03:12:17;;;;;;;4.65;1.45;;;6.80;99.90;;;;;;4995903;28;20082;-79
2024/01/04 03:14:42;;;;;;;6.68;1.17;;;6.80;99.90;;;;;;4992924;28;20505;-77
2024/01/04 03:17:08;;;;;;;3.90;1.40;;;6.70;99.90;;;;;;4992935;28;20053;-78
2024/01/04 03:19:34;;;;;;;9.05;1.60;;;6.70;99.90;;;;;;4992357;28;20154;-78
2024/01/04 03:21:59;;;;;;;7.47;1.30;;;6.70;99.90;;;;;;4992444;28;20275;-78
2024/01/04 03:24:25;;;;;;;7.20;1.35;;;6.70;99.90;;;;;;4992673;28;20108;-78
2024/01/04 03:26:50;;;;;;;4.10;1.10;;;6.70;99.90;;;;;;4991803;28;20038;-78
2024/01/04 03:29:16;;;;;;;3.28;1.05;;;6.70;99.90;;;;;;4993189;28;20054;-78
2024/01/04 03:31:41;;;;;;;5.28;1.38;;;6.70;99.90;;;;;;4992160;28;20082;-78
2024/01/04 03:34:07;;;;;;;12.57;1.65;;;6.70;99.90;;;;;;4993337;28;20182;-78
2024/01/04 03:36:33;;;;;;;4.13;1.20;;;6.70;99.90;;;;;;4992514;28;20038;-78
2024/01/04 03:38:58;;;;;;;4.07;1.20;;;6.70;99.90;;;;;;4992723;28;20113;-78
2024/01/04 03:41:24;;;;;;;6.57;1.30;;;6.70;99.90;;;;;;4993689;28;20097;-77
2024/01/04 03:43:50;;;;;;;6.13;1.20;;;6.70;99.90;;;;;;4991179;28;20073;-79
2024/01/04 03:46:16;;;;;;;4.80;1.00;;;6.70;99.90;;;;;;4991389;28;20053;-77
2024/01/04 03:48:42;;;;;;;4.18;1.17;;;6.60;99.90;;;;;;4991225;28;20050;-78
2024/01/04 03:51:10;;;;;;;6.63;1.30;;;6.60;99.90;;;;;;4991022;28;20054;-78
2024/01/04 03:53:35;;;;;;;8.30;1.30;;;6.60;99.90;;;;;;4991504;28;20390;-78
2024/01/04 03:56:01;;;;;;;6.50;1.27;;;6.60;99.90;;;;;;4991983;28;20045;-77
2024/01/04 03:58:27;;;;;;;6.18;1.15;;;6.60;99.90;;;;;;4993448;28;20077;-77
2024/01/04 04:00:53;;;;;;;5.97;1.25;;;6.50;99.90;;;;;;4993230;28;20034;-77
2024/01/04 04:03:19;;;;;;;3.22;1.10;;;6.50;99.90;;;;;;4974205;28;20125;-77
2024/01/04 04:05:45;;;;;;;2.60;1.10;;;7.50;99.90;;;;;;4992295;28;20377;-78
2024/01/04 04:08:10;;;;;;;10.00;1.48;;;6.50;99.90;;;;;;4992242;28;20042;-77
2024/01/04 04:10:36;;;;;;;4.15;1.30;;;6.50;99.90;;;;;;4983339;28;20034;-77
2024/01/04 04:13:01;;;;;;;7.13;1.20;;;6.40;99.90;;;;;;4993466;28;20046;-77
2024/01/04 04:15:27;;;;;;;5.85;1.40;;;6.40;99.90;;;;;;4991295;28;20460;-78
2024/01/04 04:17:55;;;;;;;6.78;1.45;;;6.40;99.90;;;;;;4999163;28;20120;-78
2024/01/04 04:20:20;;;;;;;4.60;1.27;;;6.30;99.90;;;;;;4991794;28;20047;-78
2024/01/04 04:22:46;;;;;;;6.07;1.40;;;6.30;99.90;;;;;;4991209;28;20488;-78
2024/01/04 04:25:11;;;;;;;6.65;1.05;;;6.40;99.90;;;;;;4991103;28;20034;-78
2024/01/04 04:27:37;;;;;;;7.68;1.23;;;6.40;99.90;;;;;;4990822;28;20117;-79
2024/01/04 04:30:04;;;;;;;6.65;1.23;;;6.40;99.90;;;;;;4990955;28;20038;-79
2024/01/04 04:32:30;;;;;;;13.32;2.00;;;6.40;99.90;;;;;;4991759;28;20791;-78
2024/01/04 04:34:55;;;;;;;4.57;1.27;;;6.40;99.90;;;;;;4990443;28;20100;-78
2024/01/04 04:37:22;;;;;;;6.82;1.25;;;6.40;99.90;;;;;;4991036;28;20034;-80
2024/01/04 04:39:48;;;;;;;6.90;1.10;;;6.40;99.90;;;;;;4991083;28;20747;-78
2024/01/04 04:42:13;;;;;;;3.83;1.13;;;6.40;99.90;;;;;;4991112;28;20046;-79
2024/01/04 04:44:39;;;;;;;5.63;1.33;;;6.40;99.90;;;;;;4990650;28;20049;-82
2024/01/04 04:47:05;;;;;;;5.55;1.25;;;6.40;99.90;;;;;;5004764;23;20122;-74
2024/01/04 04:49:30;;;;;;;3.33;1.10;;;6.10;99.90;;;;;;5022644;28;20064;-74
2024/01/04 04:51:56;;;;;;;4.80;1.20;;;5.50;99.90;;;;;;5041901;28;20037;-75
2024/01/04 04:54:22;;;;;;;3.90;1.15;;;6.40;99.90;;;;;;5039623;28;20046;-75
2024/01/04 04:56:50;;;;;;;3.90;1.10;;;6.40;99.90;;;;;;5040439;28;20025;-74
2024/01/04 04:59:16;;;;;;;6.03;1.38;;;6.40;99.90;;;;;;5027866;28;20048;-74
2024/01/04 05:01:43;;;;;;;3.60;1.13;;;6.30;99.90;;;;;;5029292;28;20041;-74
2024/01/04 05:04:12;;;;;;;6.15;1.10;;;6.30;99.90;;;;;;5019962;28;20033;-75
2024/01/04 05:06:38;;;;;;;9.88;1.50;;;6.30;99.90;;;;;;5009244;28;20034;-75
2024/01/04 05:09:04;;;;;;;4.38;1.23;;;6.30;99.90;;;;;;5022130;28;20100;-75
2024/01/04 05:11:32;;;;;;;5.53;1.13;;;6.30;99.90;;;;;;5016236;28;20073;-75
2024/01/04 05:13:58;;;;;;;3.50;1.00;;;6.50;99.90;;;;;;5024113;28;20080;-74
2024/01/04 05:16:24;;;;;;;4.88;1.00;;;6.30;99.90;;;;;;5012016;28;20095;-74
2024/01/04 05:18:49;;;;;;;7.90;0.90;;;6.30;99.90;;;;;;5025205;28;20443;-75
2024/01/04 05:21:15;;;;;;;2.85;0.68;;;6.30;99.90;;;;;;5012154;28;20577;-75
2024/01/04 05:23:41;;;;;;;6.55;1.05;;;6.20;99.90;;;;;;5015203;28;20037;-75
2024/01/04 05:26:06;;;;;;;3.33;1.00;;;6.90;99.90;;;;;;5024738;28;20068;-74
2024/01/04 05:28:32;;;;;;;3.42;0.80;;;6.30;99.90;;;;;;5022443;28;20094;-75
2024/01/04 05:30:59;;;;;;;4.13;1.02;;;6.40;99.90;;;;;;4993665;28;20042;-75
2024/01/04 05:33:27;;;;;;;4.97;0.93;;;6.20;99.90;;;;;;5025092;28;20137;-75
2024/01/04 05:35:52;;;;;;;4.90;0.90;;;6.20;99.90;;;;;;5024133;28;20030;-75
2024/01/04 05:38:18;;;;;;;4.70;1.30;;;6.20;99.90;;;;;;5017611;28;20444;-78
2024/01/04 05:40:44;;;;;;;6.00;0.90;;;6.20;99.90;;;;;;5040414;28;20041;-78
2024/01/04 05:43:11;;;;;;;3.63;1.17;;;6.60;99.90;;;;;;4998666;28;20046;-77
2024/01/04 05:45:38;;;;;;;3.10;0.77;;;6.20;99.90;;;;;;5032014;28;20034;-77
2024/01/04 05:48:04;;;;;;;3.58;0.90;;;6.20;99.90;;;;;;5022053;28;20403;-77
2024/01/04 05:50:29;;;;;;;3.55;0.90;;;6.20;99.90;;;;;;5007511;28;20033;-77
2024/01/04 05:52:55;;;;;;;5.47;1.10;;;6.20;99.90;;;;;;5026873;28;20045;-77
2024/01/04 05:55:21;;;;;;;4.20;1.10;;;6.20;99.90;;;;;;5030706;28;20291;-77
2024/01/04 05:57:46;;;;;;;3.83;1.08;;;6.10;99.90;;;;;;5027127;28;20034;-77
2024/01/04 06:00:13;;;;;;;4.28;0.90;;;6.20;99.90;;;;;;5022609;28;20115;-77
2024/01/04 06:02:39;;;;;;;3.30;0.77;;;6.20;99.90;;;;;;5032241;28;20048;-77
2024/01/04 06:05:09;;;;;;;5.63;0.90;;;6.10;99.90;;;;;;5016455;28;20041;-77
2024/01/04 06:07:34;;;;;;;4.28;1.10;;;6.20;99.90;;;;;;5021508;28;20026;-78
2024/01/04 06:10:02;;;;;;;6.63;0.75;;;6.10;99.90;;;;;;5021159;28;20040;-78
2024/01/04 06:12:44;;;;;;;4.55;0.80;;;6.10;99.90;;;;;;5028829;28;20447;-77
2024/01/04 06:15:10;;;;;;;3.55;0.90;;;5.90;99.90;;;;;;5004415;28;20416;-77
2024/01/04 06:17:35;;;;;;;5.45;1.10;;;6.10;99.90;;;;;;5011569;28;20069;-77
2024/01/04 06:20:01;;;;;;;3.92;0.80;;;6.10;99.90;;;;;;5011218;28;20068;-77
2024/01/04 06:22:28;;;;;;;4.43;0.80;;;6.10;99.90;;;;;;5011999;28;20091;-77
2024/01/04 06:24:56;;;;;;;3.67;0.88;;;6.10;99.90;;;;;;5030195;28;20048;-77
2024/01/04 06:27:22;;;;;;;3.80;0.60;;;6.10;99.90;;;;;;5032298;28;20053;-77
2024/01/04 06:29:47;;;;;;;5.50;1.23;;;6.10;99.90;;;;;;5026928;28;20480;-77
2024/01/04 06:32:14;;;;;;;2.53;0.75;;;6.10;99.90;;;;;;5024712;28;20083;-77
2024/01/04 06:34:41;;;;;;;4.30;0.80;;;6.10;99.90;;;;;;5015043;28;20045;-77
2024/01/04 06:37:09;;;;;;;6.38;1.08;;;6.10;99.90;;;;;;5030732;28;20040;-77
2024/01/04 06:39:35;;;;;;;4.75;1.02;;;6.00;99.90;;;;;;5027826;28;20038;-77
2024/01/04 06:42:04;;;;;;;4.15;0.80;;;6.10;99.90;;;;;;5028683;28;20048;-77
2024/01/04 06:44:38;;;;;;;8.20;0.82;;;6.10;99.90;;;;;;5030787;28;20565;-78
2024/01/04 06:47:03;;;;;;;1.83;0.95;;;6.10;99.90;;;;;;5019522;28;20038;-77
2024/01/04 06:49:29;;;;;;;2.28;0.70;;;6.10;99.90;;;;;;5028783;28;20072;-77
2024/01/04 06:51:55;;;;;;;3.40;0.88;;;6.10;99.90;;;;;;5024456;28;20034;-77
2024/01/04 06:54:26;;;;;;;4.47;0.80;;;6.10;99.90;;;;;;5014719;28;20038;-77
2024/01/04 06:57:02;;;;;;;2.55;0.70;;;6.10;99.90;;;;;;5008330;28;20117;-78
2024/01/04 06:59:29;;;;;;;3.65;0.95;;;6.10;99.90;;;;;;5011939;28;20085;-77
2024/01/04 07:01:55;;;;;;;4.40;0.80;;;6.10;99.90;;;;;;5021446;28;20586;-77
2024/01/04 07:04:49;;;;;;;2.97;0.93;;;6.10;99.90;;;;;;5011296;28;20148;-77
2024/01/04 07:07:14;;;;;;;4.80;1.08;;;6.10;99.90;;;;;;5028053;28;20049;-77
2024/01/04 07:09:40;;;;;;;4.47;1.17;;;6.10;99.90;;;;;;5011863;28;20064;-77
2024/01/04 07:12:06;;;;;;;4.75;0.90;;;6.10;99.90;;;;;;5011022;28;20039;-77
2024/01/04 07:14:32;;;;;;;3.75;0.80;;;6.10;99.90;;;;;;5030764;28;20049;-77
2024/01/04 07:16:57;;;;;;;3.00;0.82;;;5.40;99.90;;;;;;5022409;28;20029;-77
2024/01/04 07:19:23;;;;;;;5.90;1.00;;;6.00;99.90;;;;;;5030041;28;20116;-77
2024/01/04 07:21:49;;;;;;;4.05;0.85;;;6.10;99.90;;;;;;5031510;28;20037;-77
2024/01/04 07:24:16;;;;;;;6.95;1.10;;;6.90;99.90;;;;;;5014041;28;20068;-77
2024/01/04 07:26:43;;;;;;;3.47;0.77;;;6.00;99.90;;;;;;5015155;28;20048;-77
2024/01/04 07:29:08;;;;;;;3.25;0.82;;;6.10;99.90;;;;;;5032625;28;20470;-77
2024/01/04 07:31:35;;;;;;;4.90;0.82;;;6.10;99.90;;;;;;5031317;28;20483;-77
2024/01/04 07:34:02;;;;;;;1.55;0.85;;;6.00;99.90;;;;;;5024641;28;20233;-77
2024/01/04 07:36:29;;;;;;;3.30;1.17;;;6.10;99.90;;;;;;5030397;28;20041;-77
2024/01/04 07:38:55;;;;;;;5.53;1.15;;;6.00;99.90;;;;;;5024608;28;20495;-77
2024/01/04 07:41:20;;;;;;;3.70;0.85;;;6.10;99.90;;;;;;5025343;28;20106;-77
2024/01/04 07:43:49;;;;;;;4.25;1.00;;;6.00;99.90;;;;;;5011503;28;20416;-78
2024/01/04 07:46:15;;;;;;;3.33;1.15;;;6.00;99.90;;;;;;5020460;28;20045;-78
2024/01/04 07:48:40;;;;;;;4.28;0.90;;;6.10;99.90;;;;;;5026176;28;20037;-78
2024/01/04 07:51:06;;;;;;;4.32;0.80;;;6.10;99.90;;;;;;5031511;28;20067;-77
2024/01/04 07:53:32;;;;;;;3.83;0.90;;;6.00;99.90;;;;;;5030242;28;20044;-77
2024/01/04 07:55:59;;;;;;;4.88;0.90;;;6.00;99.90;;;;;;5017332;28;20050;-77
2024/01/04 07:58:24;;;;;;;3.92;0.90;;;6.00;99.90;;;;;;5023912;28;20033;-76
2024/01/04 08:00:51;;;;;;;6.78;0.93;;;6.00;99.90;;;;;;5021007;28;20041;-77
2024/01/04 08:03:20;;;;;;;4.85;0.80;;;6.00;99.90;;;;;;5012949;28;20047;-78
2024/01/04 08:05:46;;;;;;;5.68;1.20;;;6.30;99.90;;;;;;5013442;28;20050;-76
2024/01/04 08:08:15;;;;;;;3.90;0.73;;;6.00;99.90;;;;;;5024127;28;20175;-76
2024/01/04 08:10:41;;;;;;;5.20;0.90;;;6.80;99.90;;;;;;5018679;28;20045;-77
2024/01/04 08:13:06;;;;;;;1.90;0.77;;;6.70;99.90;;;;;;5011325;28;20029;-80
2024/01/04 08:15:37;;;;;;;2.88;1.30;;;6.00;99.90;;;;;;5043727;28;20176;-77
2024/01/04 08:18:03;;;;;;;2.58;0.90;;;6.00;99.90;;;;;;5027565;28;20491;-77
2024/01/04 08:20:32;;;;;;;4.55;0.77;;;6.10;99.90;;;;;;5023280;28;20076;-77
2024/01/04 08:23:06;;;;;;;3.55;1.27;;;6.70;99.90;;;;;;5025343;28;20442;-78
2024/01/04 08:25:32;;;;;;;2.40;0.80;;;6.30;99.90;;;;;;5024201;28;20088;-77
2024/01/04 08:27:58;;;;;;;4.75;0.90;;;7.20;99.90;;;;;;5023047;28;20034;-78
2024/01/04 08:30:26;;;;;;;5.20;1.00;;;6.10;99.90;;;;;;5004476;28;20041;-79
2024/01/04 08:32:52;;;;;;;2.75;0.75;;;6.10;99.90;;;;;;5011381;28;20041;-79
2024/01/04 08:35:20;;;;;;;4.05;0.80;;;6.10;99.90;;;;;;5027986;28;20124;-78
2024/01/04 08:37:46;;;;;;;4.50;1.10;;;6.10;99.90;;;;;;5017816;28;20069;-78
2024/01/04 08:40:13;;;;;;;3.90;1.00;;;6.10;99.90;;;;;;5009218;28;20038;-77
2024/01/04 08:42:39;;;;;;;2.78;1.00;;;6.10;99.90;;;;;;5022040;28;20492;-78
2024/01/04 08:45:06;;;;;;;5.82;1.02;;;6.10;99.90;;;;;;5017011;28;20091;-77
2024/01/04 08:47:31;;;;;;;7.57;1.40;;;6.10;99.90;;;;;;5023473;28;20094;-76
2024/01/04 08:50:01;;;;;;;3.97;0.95;;;6.10;99.90;;;;;;5028761;28;20041;-76
2024/01/04 08:52:33;;;;;;;2.83;0.98;;;6.10;99.90;;;;;;5022662;28;20057;-77
2024/01/04 08:54:59;;;;;;;3.47;0.80;;;6.10;99.90;;;;;;5024577;28;20065;-78
2024/01/04 08:57:24;;;;;;;8.00;1.08;;;7.20;99.90;;;;;;5020566;28;20304;-78
2024/01/04 08:59:51;;;;;;;5.93;1.30;;;6.10;99.90;;;;;;5009591;28;20029;-78
2024/01/04 09:02:17;;;;;;;3.47;0.80;;;6.10;99.90;;;;;;5044245;28;20403;-78
2024/01/04 09:04:45;;;;;;;7.13;1.23;;;6.00;99.90;;;;;;5026812;28;20042;-79
2024/01/04 09:07:21;;;;;;;6.07;1.17;;;6.10;99.90;;;;;;5023123;28;20046;-78
2024/01/04 09:09:50;;;;;;;3.95;1.10;;;6.80;99.90;;;;;;5023064;28;20048;-78
2024/01/04 09:12:16;;;;;;;5.82;1.00;;;6.60;99.90;;;;;;5027273;28;20045;-77
2024/01/04 09:14:41;;;;;;;4.70;1.38;;;6.20;99.90;;;;;;5024134;28;20068;-77
2024/01/04 09:17:07;;;;;;;6.15;1.10;;;6.20;99.90;;;;;;5022950;28;20038;-77
2024/01/04 09:19:32;;;;;;;5.70;0.93;;;6.20;99.90;;;;;;5022638;28;20065;-78
2024/01/04 09:22:01;;;;;;;7.82;1.17;;;6.30;99.90;;;;;;5033788;28;20045;-77
2024/01/04 09:24:27;;;;;;;5.50;1.65;;;6.20;99.90;;;;;;5043343;28;20044;-77
2024/01/04 09:26:53;;;;;;;7.28;1.73;;;6.20;99.90;;;;;;5014914;28;20112;-76
2024/01/04 09:29:19;;;;;;;4.75;1.10;;;6.30;99.90;;;;;;5027836;28;20120;-76
2024/01/04 09:31:46;;;;;;;4.32;1.00;;;7.30;99.90;;;;;;5023095;28;20072;-76
2024/01/04 09:34:15;;;;;;;5.88;1.10;;;6.30;99.90;;;;;;5018451;28;20428;-76
2024/01/04 09:36:41;;;;;;;2.03;0.85;;;6.30;99.90;;;;;;5022544;28;20025;-76
2024/01/04 09:39:07;;;;;;;2.88;0.95;;;6.30;99.90;;;;;;5029609;28;20037;-77
2024/01/04 09:41:44;;;;;;;5.32;1.13;;;6.30;99.90;;;;;;5014374;28;20112;-78
2024/01/04 09:44:13;;;;;;;3.53;1.05;;;6.30;99.90;;;;;;5031815;28;20072;-77
2024/01/04 09:46:45;;;;;;;3.17;0.90;;;6.40;99.90;;;;;;5032337;28;20507;-77
2024/01/04 09:49:13;;;;;;;6.28;1.15;;;6.40;99.90;;;;;;5024516;28;20659;-78
2024/01/04 09:51:42;;;;;;;5.38;1.20;;;6.50;99.90;;;;;;5021716;28;20038;-78
2024/01/04 09:54:10;;;;;;;4.13;1.08;;;6.50;99.90;;;;;;5031481;28;20121;-76
2024/01/04 09:56:43;;;;;;;2.33;0.88;;;7.00;99.90;;;;;;5041796;28;20034;-77
2024/01/04 09:59:10;;;;;;;2.80;0.77;;;6.50;99.90;;;;;;5021816;28;20448;-76
2024/01/04 10:01:38;;;;;;;4.00;1.00;;;6.60;99.90;;;;;;5029967;28;20060;-76
2024/01/04 10:04:12;;;;;;;3.25;1.10;;;6.60;99.90;;;;;;5025726;28;20103;-75
2024/01/04 10:06:43;;;;;;;6.15;1.30;;;6.60;99.90;;;;;;5028835;28;20041;-76
2024/01/04 10:09:18;;;;;;;3.42;1.02;;;6.60;99.90;;;;;;5027289;28;20129;-79
2024/01/04 10:12:05;;;;;;;3.90;1.00;;;6.60;99.90;;;;;;5026941;28;20091;-77
2024/01/04 10:14:32;;;;;;;7.40;1.10;;;6.60;99.90;;;;;;5038130;28;20084;-78
2024/01/04 10:16:59;;;;;;;4.60;0.85;;;6.60;99.90;;;;;;5012676;28;20037;-77
2024/01/04 10:19:26;;;;;;;9.63;1.15;;;6.60;99.90;;;;;;5020229;28;20113;-77
2024/01/04 10:21:52;;;;;;;5.55;1.27;;;6.60;99.90;;;;;;5009225;28;20046;-77
2024/01/04 10:24:25;;;;;;;2.55;0.82;;;6.60;99.90;;;;;;5008275;28;20042;-77
2024/01/04 10:27:00;;;;;;;2.97;1.00;;;6.60;99.90;;;;;;5019204;28;20084;-77
2024/01/04 10:29:27;;;;;;;5.40;1.30;;;6.70;99.90;;;;;;5010499;28;20037;-78
2024/01/04 10:32:00;;;;;;;4.72;1.55;;;6.70;99.90;;;;;;5023138;28;20076;-77
2024/01/04 10:34:26;;;;;;;4.00;1.15;;;6.70;99.90;;;;;;5024131;28;20092;-77
2024/01/04 10:36:53;;;;;;;3.08;1.00;;;6.80;99.90;;;;;;5023072;28;20426;-77
2024/01/04 10:39:21;;;;;;;7.20;1.10;;;6.80;99.90;;;;;;5019555;28;20076;-75
2024/01/04 10:41:59;;;;;;;6.70;1.00;;;6.80;99.90;;;;;;5014198;28;20490;-78
2024/01/04 10:44:25;;;;;;;6.78;1.20;;;6.80;99.90;;;;;;5017225;28;20465;-76
2024/01/04 10:46:56;;;;;;;3.78;1.20;;;6.80;99.90;;;;;;5023661;28;20084;-76
2024/01/04 10:49:26;;;;;;;5.05;1.35;;;6.90;99.90;;;;;;5053561;22;20152;-69
2024/01/04 10:51:54;;;;;;;4.03;1.13;;;6.80;99.90;;;;;;5004108;28;20550;-69
2024/01/04 10:54:20;;;;;;;3.30;1.15;;;6.90;99.90;;;;;;5004902;28;20430;-69
2024/01/04 10:56:46;;;;;;;2.80;1.30;;;6.90;99.90;;;;;;5000821;28;20045;-69
2024/01/04 10:59:12;;;;;;;5.28;1.20;;;6.90;99.90;;;;;;5003491;28;20034;-69
2024/01/04 11:01:42;;;;;;;5.70;1.55;;;6.90;99.90;;;;;;5005295;28;20053;-69
2024/01/04 11:04:07;;;;;;;3.05;1.00;;;6.90;99.90;;;;;;5003276;28;20073;-69
2024/01/04 11:06:40;;;;;;;5.70;0.98;;;6.90;99.90;;;;;;4998391;28;20072;-69
2024/01/04 11:09:07;;;;;;;4.57;1.15;;;6.90;99.90;;;;;;5004106;28;20041;-69
2024/01/04 11:11:35;;;;;;;3.45;1.17;;;6.90;99.90;;;;;;4997293;28;20076;-69
2024/01/04 11:14:04;;;;;;;3.42;1.52;;;6.90;99.90;;;;;;4996039;28;20045;-69
2024/01/04 11:16:39;;;;;;;5.70;1.40;;;6.90;99.90;;;;;;4994722;28;20042;-69
2024/01/04 11:19:13;;;;;;;4.40;1.30;;;6.90;99.90;;;;;;4978504;28;20073;-69
2024/01/04 11:22:08;;;;;;;5.20;1.30;;;6.90;99.90;;;;;;4995210;28;20042;-69
2024/01/04 11:24:50;;;;;;;4.78;1.40;;;6.90;99.90;;;;;;5007568;28;20510;-69
2024/01/04 11:27:17;;;;;;;4.30;1.17;;;6.90;99.90;;;;;;5004280;28;20516;-69
2024/01/04 11:29:43;;;;;;;4.28;1.10;;;6.90;99.90;;;;;;4994159;28;20297;-69
2024/01/04 11:32:10;;;;;;;5.55;1.30;;;6.90;99.90;;;;;;5004444;28;20084;-69
2024/01/04 11:34:38;;;;;;;5.40;1.23;;;6.90;99.90;;;;;;5006828;28;20491;-69
2024/01/04 11:37:09;;;;;;;5.65;1.17;;;6.90;99.90;;;;;;5000548;28;20030;-69
2024/01/04 11:40:07;;;;;;;3.10;0.90;;;6.90;99.90;;;;;;5010265;28;20688;-69
2024/01/04 11:42:41;;;;;;;4.10;1.27;;;6.90;99.90;;;;;;4999730;28;20467;-69
2024/01/04 11:45:15;;;;;;;5.85;1.27;;;6.90;99.90;;;;;;5003849;28;20380;-69
2024/01/04 11:47:43;;;;;;;5.78;1.17;;;6.90;99.90;;;;;;4991166;28;20117;-69
2024/01/04 11:50:15;;;;;;;4.25;1.35;;;6.90;99.90;;;;;;4998066;28;20044;-69
2024/01/04 11:52:41;;;;;;;4.75;1.55;;;6.90;99.90;;;;;;5009473;28;20062;-69
2024/01/04 11:55:07;;;;;;;5.32;1.38;;;6.90;99.90;;;;;;5002144;28;20450;-69
2024/01/04 11:57:33;;;;;;;6.15;1.10;;;6.90;99.90;;;;;;5005882;28;20040;-69
2024/01/04 12:00:11;;;;;;;3.25;1.02;;;6.90;99.90;;;;;;5006032;28;20653;-69
2024/01/04 12:02:37;;;;;;;2.90;1.05;;;6.90;99.90;;;;;;5000380;28;20041;-69
2024/01/04 12:05:05;;;;;;;3.33;0.90;;;6.90;99.90;;;;;;5004101;28;20410;-69
2024/01/04 12:07:33;;;;;;;6.40;1.40;;;6.90;99.90;;;;;;4992291;28;20506;-69
2024/01/04 12:09:59;;;;;;;3.55;1.10;;;6.90;99.90;;;;;;5003211;28;20521;-69
2024/01/04 12:12:25;;;;;;;6.03;1.13;;;6.90;99.90;;;;;;5009365;28;20437;-69
2024/01/04 12:14:50;;;;;;;3.25;1.25;;;7.00;99.90;;;;;;5008298;28;20124;-69
2024/01/04 12:17:16;;;;;;;4.78;1.15;;;7.00;99.90;;;;;;5009533;28;20157;-69
2024/01/04 12:19:41;;;;;;;4.53;1.17;;;7.00;99.90;;;;;;5008735;28;20384;-69
2024/01/04 12:22:07;;;;;;;4.75;1.35;;;7.00;99.90;;;;;;5008747;28;20041;-69
2024/01/04 12:24:33;;;;;;;2.92;1.20;;;7.00;99.90;;;;;;5008205;28;20041;-69
2024/01/04 12:26:59;;;;;;;3.20;1.27;;;7.00;99.90;;;;;;5010316;28;20037;-69
2024/01/04 12:29:25;;;;;;;5.78;1.30;;;7.00;99.90;;;;;;4994035;28;20050;-69
2024/01/04 12:31:51;;;;;;;6.18;1.17;;;7.00;99.90;;;;;;5008357;28;20046;-69
2024/01/04 12:34:18;;;;;;;5.10;1.20;;;7.00;99.90;;;;;;5008501;28;20071;-69
2024/01/04 12:36:45;;;;;;;2.97;1.10;;;7.00;99.90;;;;;;5006853;28;20042;-69
2024/01/04 12:39:12;;;;;;;4.82;1.23;;;6.90;99.90;;;;;;5009680;28;20038;-69
2024/01/04 12:41:39;;;;;;;3.13;1.00;;;7.00;99.90;;;;;;5008576;28;20096;-69
2024/01/04 12:44:07;;;;;;;4.47;0.93;;;7.00;99.90;;;;;;5002697;28;20031;-69
2024/01/04 12:46:33;;;;;;;3.05;1.00;;;6.90;99.90;;;;;;4992891;28;20697;-69
2024/01/04 12:49:12;;;;;;;5.00;1.25;;;6.90;99.90;;;;;;5010008;28;20128;-69
2024/01/04 12:51:39;;;;;;;4.32;1.42;;;7.80;99.90;;;;;;4998034;28;20049;-69
2024/01/04 12:54:05;;;;;;;4.75;1.15;;;6.90;99.90;;;;;;5013524;28;20135;-69
2024/01/04 12:56:32;;;;;;;7.28;1.60;;;6.90;99.90;;;;;;5012335;28;20049;-69